sensor_id;sensor_type;location;lat;lon;timestamp;temperature;humidity
52543;DHT22;38449;52.696;6.186;2023-04-28T00:00:10;8.40;99.90
52543;DHT22;38449;52.696;6.186;2023-04-28T00:02:37;8.40;99.90
52543;DHT22;38449;52.696;6.186;2023-04-28T00:05:03;8.40;99.90
52543;DHT22;38449;52.696;6.186;2023-04-28T00:07:30;8.30;99.90
52543;DHT22;38449;52.696;6.186;2023-04-28T00:09:56;8.30;99.90
52543;DHT22;38449;52.696;6.186;2023-04-28T00:12:22;8.30;99.90
52543;DHT22;38449;52.696;6.186;2023-04-28T00:14:49;8.30;99.90
52543;DHT22;38449;52.696;6.186;2023-04-28T00:17:15;8.20;99.90
52543;DHT22;38449;52.696;6.186;2023-04-28T00:19:42;8.20;99.90
52543;DHT22;38449;52.696;6.186;2023-04-28T00:22:08;8.20;99.90
52543;DHT22;38449;52.696;6.186;2023-04-28T00:24:34;8.20;99.90
52543;DHT22;38449;52.696;6.186;2023-04-28T00:27:01;8.10;99.90
52543;DHT22;38449;52.696;6.186;2023-04-28T00:29:28;8.20;99.90
52543;DHT22;38449;52.696;6.186;2023-04-28T00:31:55;8.10;99.90
52543;DHT22;38449;52.696;6.186;2023-04-28T00:34:21;8.10;99.90
52543;DHT22;38449;52.696;6.186;2023-04-28T00:36:47;8.10;99.90
52543;DHT22;38449;52.696;6.186;2023-04-28T00:39:15;8.10;99.90
52543;DHT22;38449;52.696;6.186;2023-04-28T00:41:43;8.00;99.90
52543;DHT22;38449;52.696;6.186;2023-04-28T00:44:09;8.00;99.90
52543;DHT22;38449;52.696;6.186;2023-04-28T00:46:35;8.00;99.90
52543;DHT22;38449;52.696;6.186;2023-04-28T00:49:03;8.00;99.90
52543;DHT22;38449;52.696;6.186;2023-04-28T00:51:29;8.00;99.90
52543;DHT22;38449;52.696;6.186;2023-04-28T00:53:56;7.90;99.90
52543;DHT22;38449;52.696;6.186;2023-04-28T00:56:23;7.90;99.90
52543;DHT22;38449;52.696;6.186;2023-04-28T00:58:49;7.90;99.90
52543;DHT22;38449;52.696;6.186;2023-04-28T01:01:15;7.90;99.90
52543;DHT22;38449;52.696;6.186;2023-04-28T01:03:41;7.80;99.90
52543;DHT22;38449;52.696;6.186;2023-04-28T01:06:09;7.90;99.90
52543;DHT22;38449;52.696;6.186;2023-04-28T01:08:37;7.80;99.90
52543;DHT22;38449;52.696;6.186;2023-04-28T01:11:03;7.80;99.90
52543;DHT22;38449;52.696;6.186;2023-04-28T01:13:29;7.80;99.90
52543;DHT22;38449;52.696;6.186;2023-04-28T01:15:56;7.80;99.90
52543;DHT22;38449;52.696;6.186;2023-04-28T01:18:23;7.70;99.90
52543;DHT22;38449;52.696;6.186;2023-04-28T01:20:50;7.80;99.90
52543;DHT22;38449;52.696;6.186;2023-04-28T01:23:16;7.80;99.90
52543;DHT22;38449;52.696;6.186;2023-04-28T01:25:43;7.80;99.90
52543;DHT22;38449;52.696;6.186;2023-04-28T01:28:10;7.70;99.90
52543;DHT22;38449;52.696;6.186;2023-04-28T01:30:37;7.70;99.90
52543;DHT22;38449;52.696;6.186;2023-04-28T01:33:03;7.70;99.90
52543;DHT22;38449;52.696;6.186;2023-04-28T01:35:29;7.70;99.90
52543;DHT22;38449;52.696;6.186;2023-04-28T01:37:56;7.70;99.90
52543;DHT22;38449;52.696;6.186;2023-04-28T01:40:22;7.60;99.90
52543;DHT22;38449;52.696;6.186;2023-04-28T01:42:48;7.60;99.90
52543;DHT22;38449;52.696;6.186;2023-04-28T01:45:16;7.60;99.90
52543;DHT22;38449;52.696;6.186;2023-04-28T01:47:42;7.60;99.90
52543;DHT22;38449;52.696;6.186;2023-04-28T01:50:09;7.60;99.90
52543;DHT22;38449;52.696;6.186;2023-04-28T01:52:35;7.60;99.90
52543;DHT22;38449;52.696;6.186;2023-04-28T01:55:01;7.60;99.90
52543;DHT22;38449;52.696;6.186;2023-04-28T01:57:28;7.60;99.90
52543;DHT22;38449;52.696;6.186;2023-04-28T01:59:54;7.50;99.90
52543;DHT22;38449;52.696;6.186;2023-04-28T02:02:21;7.50;99.90
52543;DHT22;38449;52.696;6.186;2023-04-28T02:04:47;7.50;99.90
52543;DHT22;38449;52.696;6.186;2023-04-28T02:07:13;7.40;99.90
52543;DHT22;38449;52.696;6.186;2023-04-28T02:09:40;7.40;99.90
52543;DHT22;38449;52.696;6.186;2023-04-28T02:12:06;7.40;99.90
52543;DHT22;38449;52.696;6.186;2023-04-28T02:14:33;7.40;99.90
52543;DHT22;38449;52.696;6.186;2023-04-28T02:16:59;7.30;99.90
52543;DHT22;38449;52.696;6.186;2023-04-28T02:19:27;7.30;99.90
52543;DHT22;38449;52.696;6.186;2023-04-28T02:21:54;7.30;99.90
52543;DHT22;38449;52.696;6.186;2023-04-28T02:24:20;7.40;99.90
52543;DHT22;38449;52.696;6.186;2023-04-28T02:26:46;7.30;99.90
52543;DHT22;38449;52.696;6.186;2023-04-28T02:29:13;7.40;99.90
52543;DHT22;38449;52.696;6.186;2023-04-28T02:31:39;7.40;99.90
52543;DHT22;38449;52.696;6.186;2023-04-28T02:34:05;7.40;99.90
52543;DHT22;38449;52.696;6.186;2023-04-28T02:36:32;7.40;99.90
52543;DHT22;38449;52.696;6.186;2023-04-28T02:38:58;7.50;99.90
52543;DHT22;38449;52.696;6.186;2023-04-28T02:41:24;7.50;99.90
52543;DHT22;38449;52.696;6.186;2023-04-28T02:43:51;7.50;99.90
52543;DHT22;38449;52.696;6.186;2023-04-28T02:46:17;7.40;99.90
52543;DHT22;38449;52.696;6.186;2023-04-28T02:48:44;7.40;99.90
52543;DHT22;38449;52.696;6.186;2023-04-28T02:51:10;7.40;99.90
52543;DHT22;38449;52.696;6.186;2023-04-28T02:53:36;7.50;99.90
52543;DHT22;38449;52.696;6.186;2023-04-28T02:56:03;7.40;99.90
52543;DHT22;38449;52.696;6.186;2023-04-28T02:58:29;7.40;99.90
52543;DHT22;38449;52.696;6.186;2023-04-28T03:00:56;7.50;99.90
52543;DHT22;38449;52.696;6.186;2023-04-28T03:03:22;7.40;99.90
52543;DHT22;38449;52.696;6.186;2023-04-28T03:05:48;7.40;99.90
52543;DHT22;38449;52.696;6.186;2023-04-28T03:08:14;7.40;99.90
52543;DHT22;38449;52.696;6.186;2023-04-28T03:10:40;7.50;99.90
52543;DHT22;38449;52.696;6.186;2023-04-28T03:13:07;7.50;99.90
52543;DHT22;38449;52.696;6.186;2023-04-28T03:15:33;7.40;99.90
52543;DHT22;38449;52.696;6.186;2023-04-28T03:17:59;7.40;99.90
52543;DHT22;38449;52.696;6.186;2023-04-28T03:20:26;7.50;99.90
52543;DHT22;38449;52.696;6.186;2023-04-28T03:22:52;7.40;99.90
52543;DHT22;38449;52.696;6.186;2023-04-28T03:25:18;7.40;99.90
52543;DHT22;38449;52.696;6.186;2023-04-28T03:27:44;7.40;99.90
52543;DHT22;38449;52.696;6.186;2023-04-28T03:30:11;7.40;99.90
52543;DHT22;38449;52.696;6.186;2023-04-28T03:32:37;7.40;99.90
52543;DHT22;38449;52.696;6.186;2023-04-28T03:35:04;7.40;99.90
52543;DHT22;38449;52.696;6.186;2023-04-28T03:37:30;7.40;99.90
52543;DHT22;38449;52.696;6.186;2023-04-28T03:39:56;7.30;99.90
52543;DHT22;38449;52.696;6.186;2023-04-28T03:42:23;7.40;99.90
52543;DHT22;38449;52.696;6.186;2023-04-28T03:44:49;7.30;99.90
52543;DHT22;38449;52.696;6.186;2023-04-28T03:47:15;7.30;99.90
52543;DHT22;38449;52.696;6.186;2023-04-28T03:49:41;7.30;99.90
52543;DHT22;38449;52.696;6.186;2023-04-28T03:52:07;7.30;99.90
52543;DHT22;38449;52.696;6.186;2023-04-28T03:54:34;7.30;99.90
52543;DHT22;38449;52.696;6.186;2023-04-28T03:57:00;7.30;99.90
52543;DHT22;38449;52.696;6.186;2023-04-28T03:59:26;7.30;99.90
52543;DHT22;38449;52.696;6.186;2023-04-28T04:01:53;7.30;99.90
52543;DHT22;38449;52.696;6.186;2023-04-28T04:04:19;7.30;99.90
52543;DHT22;38449;52.696;6.186;2023-04-28T04:06:45;7.30;99.90
52543;DHT22;38449;52.696;6.186;2023-04-28T04:09:12;7.30;99.90
52543;DHT22;38449;52.696;6.186;2023-04-28T04:11:38;7.30;99.90
52543;DHT22;38449;52.696;6.186;2023-04-28T04:14:04;7.30;99.90
52543;DHT22;38449;52.696;6.186;2023-04-28T04:16:31;7.30;99.90
52543;DHT22;38449;52.696;6.186;2023-04-28T04:18:57;7.30;99.90
52543;DHT22;38449;52.696;6.186;2023-04-28T04:21:23;7.30;99.90
52543;DHT22;38449;52.696;6.186;2023-04-28T04:23:50;7.30;99.90
52543;DHT22;38449;52.696;6.186;2023-04-28T04:26:16;7.30;99.90
52543;DHT22;38449;52.696;6.186;2023-04-28T04:28:43;7.30;99.90
52543;DHT22;38449;52.696;6.186;2023-04-28T04:31:09;7.30;99.90
52543;DHT22;38449;52.696;6.186;2023-04-28T04:33:36;7.30;99.90
52543;DHT22;38449;52.696;6.186;2023-04-28T04:36:03;7.30;99.90
52543;DHT22;38449;52.696;6.186;2023-04-28T04:38:30;7.20;99.90
52543;DHT22;38449;52.696;6.186;2023-04-28T04:40:56;7.30;99.90
52543;DHT22;38449;52.696;6.186;2023-04-28T04:43:22;7.30;99.90
52543;DHT22;38449;52.696;6.186;2023-04-28T04:45:48;7.30;99.90
52543;DHT22;38449;52.696;6.186;2023-04-28T04:48:15;7.30;99.90
52543;DHT22;38449;52.696;6.186;2023-04-28T04:50:41;7.40;99.90
52543;DHT22;38449;52.696;6.186;2023-04-28T04:53:08;7.40;99.90
52543;DHT22;38449;52.696;6.186;2023-04-28T04:55:35;7.40;99.90
52543;DHT22;38449;52.696;6.186;2023-04-28T04:58:01;7.40;99.90
52543;DHT22;38449;52.696;6.186;2023-04-28T05:00:28;7.40;99.90
52543;DHT22;38449;52.696;6.186;2023-04-28T05:02:54;7.40;99.90
52543;DHT22;38449;52.696;6.186;2023-04-28T05:05:20;7.40;99.90
52543;DHT22;38449;52.696;6.186;2023-04-28T05:07:47;7.40;99.90
52543;DHT22;38449;52.696;6.186;2023-04-28T05:10:13;7.40;99.90
52543;DHT22;38449;52.696;6.186;2023-04-28T05:12:39;7.40;99.90
52543;DHT22;38449;52.696;6.186;2023-04-28T05:15:06;7.40;99.90
52543;DHT22;38449;52.696;6.186;2023-04-28T05:17:33;7.40;99.90
52543;DHT22;38449;52.696;6.186;2023-04-28T05:19:59;7.50;99.90
52543;DHT22;38449;52.696;6.186;2023-04-28T05:22:25;7.50;99.90
52543;DHT22;38449;52.696;6.186;2023-04-28T05:24:52;7.50;99.90
52543;DHT22;38449;52.696;6.186;2023-04-28T05:27:18;7.60;99.90
52543;DHT22;38449;52.696;6.186;2023-04-28T05:29:44;7.60;99.90
52543;DHT22;38449;52.696;6.186;2023-04-28T05:32:11;7.60;99.90
52543;DHT22;38449;52.696;6.186;2023-04-28T05:34:37;7.70;99.90
52543;DHT22;38449;52.696;6.186;2023-04-28T05:37:03;7.70;99.90
52543;DHT22;38449;52.696;6.186;2023-04-28T05:39:30;7.70;99.90
52543;DHT22;38449;52.696;6.186;2023-04-28T05:41:56;7.70;99.90
52543;DHT22;38449;52.696;6.186;2023-04-28T05:44:24;7.70;99.90
52543;DHT22;38449;52.696;6.186;2023-04-28T05:46:50;7.80;99.90
52543;DHT22;38449;52.696;6.186;2023-04-28T05:49:16;7.80;99.90
52543;DHT22;38449;52.696;6.186;2023-04-28T05:51:43;7.80;99.90
52543;DHT22;38449;52.696;6.186;2023-04-28T05:54:09;7.80;99.90
52543;DHT22;38449;52.696;6.186;2023-04-28T05:56:36;7.90;99.90
52543;DHT22;38449;52.696;6.186;2023-04-28T05:59:02;7.90;99.90
52543;DHT22;38449;52.696;6.186;2023-04-28T06:01:30;8.00;99.90
52543;DHT22;38449;52.696;6.186;2023-04-28T06:03:57;8.00;99.90
52543;DHT22;38449;52.696;6.186;2023-04-28T06:06:24;8.00;99.90
52543;DHT22;38449;52.696;6.186;2023-04-28T06:08:51;8.10;99.90
52543;DHT22;38449;52.696;6.186;2023-04-28T06:11:17;8.10;99.90
52543;DHT22;38449;52.696;6.186;2023-04-28T06:13:50;8.10;99.90
52543;DHT22;38449;52.696;6.186;2023-04-28T06:16:17;8.00;99.90
52543;DHT22;38449;52.696;6.186;2023-04-28T06:18:44;8.00;99.90
52543;DHT22;38449;52.696;6.186;2023-04-28T06:21:10;8.00;99.90
52543;DHT22;38449;52.696;6.186;2023-04-28T06:23:36;8.00;99.90
52543;DHT22;38449;52.696;6.186;2023-04-28T06:26:05;8.00;99.90
52543;DHT22;38449;52.696;6.186;2023-04-28T06:28:32;8.10;99.90
52543;DHT22;38449;52.696;6.186;2023-04-28T06:31:04;8.10;99.90
52543;DHT22;38449;52.696;6.186;2023-04-28T06:33:30;8.20;99.90
52543;DHT22;38449;52.696;6.186;2023-04-28T06:35:57;8.20;99.90
52543;DHT22;38449;52.696;6.186;2023-04-28T06:38:23;8.30;99.90
52543;DHT22;38449;52.696;6.186;2023-04-28T06:40:49;8.40;99.90
52543;DHT22;38449;52.696;6.186;2023-04-28T06:43:15;8.40;99.90
52543;DHT22;38449;52.696;6.186;2023-04-28T06:45:42;8.50;99.90
52543;DHT22;38449;52.696;6.186;2023-04-28T06:48:08;8.60;99.90
52543;DHT22;38449;52.696;6.186;2023-04-28T06:50:36;8.60;99.90
52543;DHT22;38449;52.696;6.186;2023-04-28T06:53:02;8.60;99.90
52543;DHT22;38449;52.696;6.186;2023-04-28T06:55:28;8.60;99.90
52543;DHT22;38449;52.696;6.186;2023-04-28T06:57:55;8.70;99.90
52543;DHT22;38449;52.696;6.186;2023-04-28T07:00:21;8.70;99.90
52543;DHT22;38449;52.696;6.186;2023-04-28T07:02:47;8.70;99.90
52543;DHT22;38449;52.696;6.186;2023-04-28T07:05:13;8.80;99.90
52543;DHT22;38449;52.696;6.186;2023-04-28T07:07:40;8.80;99.90
52543;DHT22;38449;52.696;6.186;2023-04-28T07:10:06;8.80;99.90
52543;DHT22;38449;52.696;6.186;2023-04-28T07:12:33;8.90;99.90
52543;DHT22;38449;52.696;6.186;2023-04-28T07:15:04;8.90;99.90
52543;DHT22;38449;52.696;6.186;2023-04-28T07:17:31;9.00;99.90
52543;DHT22;38449;52.696;6.186;2023-04-28T07:19:57;9.20;99.90
52543;DHT22;38449;52.696;6.186;2023-04-28T07:22:24;9.30;99.90
52543;DHT22;38449;52.696;6.186;2023-04-28T07:24:51;9.40;99.90
52543;DHT22;38449;52.696;6.186;2023-04-28T07:27:18;9.40;99.90
52543;DHT22;38449;52.696;6.186;2023-04-28T07:29:44;9.50;99.90
52543;DHT22;38449;52.696;6.186;2023-04-28T07:32:10;9.60;99.90
52543;DHT22;38449;52.696;6.186;2023-04-28T07:34:37;9.50;99.90
52543;DHT22;38449;52.696;6.186;2023-04-28T07:37:03;9.50;99.90
52543;DHT22;38449;52.696;6.186;2023-04-28T07:39:30;9.40;99.90
52543;DHT22;38449;52.696;6.186;2023-04-28T07:41:57;9.50;99.90
52543;DHT22;38449;52.696;6.186;2023-04-28T07:44:23;9.60;99.90
52543;DHT22;38449;52.696;6.186;2023-04-28T07:46:50;9.70;99.90
52543;DHT22;38449;52.696;6.186;2023-04-28T07:49:20;9.80;99.90
52543;DHT22;38449;52.696;6.186;2023-04-28T07:51:46;9.90;99.90
52543;DHT22;38449;52.696;6.186;2023-04-28T07:54:18;9.90;99.90
52543;DHT22;38449;52.696;6.186;2023-04-28T07:56:45;10.00;99.90
52543;DHT22;38449;52.696;6.186;2023-04-28T07:59:11;10.10;99.90
52543;DHT22;38449;52.696;6.186;2023-04-28T08:01:38;10.10;99.90
52543;DHT22;38449;52.696;6.186;2023-04-28T08:04:04;10.20;99.90
52543;DHT22;38449;52.696;6.186;2023-04-28T08:06:31;10.30;99.90
52543;DHT22;38449;52.696;6.186;2023-04-28T08:08:59;10.30;99.90
52543;DHT22;38449;52.696;6.186;2023-04-28T08:11:27;10.40;99.90
52543;DHT22;38449;52.696;6.186;2023-04-28T08:13:53;10.60;99.90
52543;DHT22;38449;52.696;6.186;2023-04-28T08:16:20;10.70;99.90
52543;DHT22;38449;52.696;6.186;2023-04-28T08:18:47;10.80;99.90
52543;DHT22;38449;52.696;6.186;2023-04-28T08:21:13;10.80;99.90
52543;DHT22;38449;52.696;6.186;2023-04-28T08:23:40;10.90;99.90
52543;DHT22;38449;52.696;6.186;2023-04-28T08:26:06;10.90;99.90
52543;DHT22;38449;52.696;6.186;2023-04-28T08:28:32;11.00;99.90
52543;DHT22;38449;52.696;6.186;2023-04-28T08:30:59;11.10;99.90
52543;DHT22;38449;52.696;6.186;2023-04-28T08:33:26;11.20;99.90
52543;DHT22;38449;52.696;6.186;2023-04-28T08:35:54;11.20;99.90
52543;DHT22;38449;52.696;6.186;2023-04-28T08:38:20;11.30;99.90
52543;DHT22;38449;52.696;6.186;2023-04-28T08:40:49;11.40;99.90
52543;DHT22;38449;52.696;6.186;2023-04-28T08:43:15;11.50;99.90
52543;DHT22;38449;52.696;6.186;2023-04-28T08:45:43;11.70;99.90
52543;DHT22;38449;52.696;6.186;2023-04-28T08:48:18;11.70;99.90
52543;DHT22;38449;52.696;6.186;2023-04-28T08:50:52;11.80;99.90
52543;DHT22;38449;52.696;6.186;2023-04-28T08:53:24;11.70;99.90
52543;DHT22;38449;52.696;6.186;2023-04-28T08:55:55;11.70;99.90
52543;DHT22;38449;52.696;6.186;2023-04-28T08:58:26;11.70;99.90
52543;DHT22;38449;52.696;6.186;2023-04-28T09:00:53;11.70;99.90
52543;DHT22;38449;52.696;6.186;2023-04-28T09:03:19;11.70;99.90
52543;DHT22;38449;52.696;6.186;2023-04-28T09:05:46;11.80;99.90
52543;DHT22;38449;52.696;6.186;2023-04-28T09:08:12;11.80;99.90
52543;DHT22;38449;52.696;6.186;2023-04-28T09:10:39;11.80;99.90
52543;DHT22;38449;52.696;6.186;2023-04-28T09:13:06;11.80;99.90
52543;DHT22;38449;52.696;6.186;2023-04-28T09:15:37;11.90;99.90
52543;DHT22;38449;52.696;6.186;2023-04-28T09:18:06;12.00;99.90
52543;DHT22;38449;52.696;6.186;2023-04-28T09:20:34;12.00;99.90
52543;DHT22;38449;52.696;6.186;2023-04-28T09:25:39;12.40;99.90
52543;DHT22;38449;52.696;6.186;2023-04-28T09:28:21;12.50;99.90
52543;DHT22;38449;52.696;6.186;2023-04-28T09:30:48;12.70;99.90
52543;DHT22;38449;52.696;6.186;2023-04-28T09:33:14;12.80;99.90
52543;DHT22;38449;52.696;6.186;2023-04-28T09:35:44;13.00;99.90
52543;DHT22;38449;52.696;6.186;2023-04-28T09:38:21;13.20;99.90
52543;DHT22;38449;52.696;6.186;2023-04-28T09:40:49;13.40;99.90
52543;DHT22;38449;52.696;6.186;2023-04-28T09:45:54;13.90;99.90
52543;DHT22;38449;52.696;6.186;2023-04-28T09:48:47;14.10;99.90
52543;DHT22;38449;52.696;6.186;2023-04-28T09:51:19;14.30;99.90
52543;DHT22;38449;52.696;6.186;2023-04-28T09:53:46;14.40;99.90
52543;DHT22;38449;52.696;6.186;2023-04-28T09:56:12;14.50;99.90
52543;DHT22;38449;52.696;6.186;2023-04-28T09:58:39;14.70;99.90
52543;DHT22;38449;52.696;6.186;2023-04-28T10:01:08;14.80;99.90
52543;DHT22;38449;52.696;6.186;2023-04-28T10:03:36;14.90;99.90
52543;DHT22;38449;52.696;6.186;2023-04-28T10:06:04;14.90;99.90
52543;DHT22;38449;52.696;6.186;2023-04-28T10:08:31;15.00;99.90
52543;DHT22;38449;52.696;6.186;2023-04-28T10:10:58;15.10;99.90
52543;DHT22;38449;52.696;6.186;2023-04-28T10:13:24;15.10;99.90
52543;DHT22;38449;52.696;6.186;2023-04-28T10:15:51;15.10;99.90
52543;DHT22;38449;52.696;6.186;2023-04-28T10:18:24;15.00;99.90
52543;DHT22;38449;52.696;6.186;2023-04-28T10:20:59;14.70;99.90
52543;DHT22;38449;52.696;6.186;2023-04-28T10:26:56;14.60;99.90
52543;DHT22;38449;52.696;6.186;2023-04-28T10:29:26;14.70;99.90
52543;DHT22;38449;52.696;6.186;2023-04-28T10:32:17;14.70;99.90
52543;DHT22;38449;52.696;6.186;2023-04-28T10:34:44;14.80;99.90
52543;DHT22;38449;52.696;6.186;2023-04-28T10:37:10;15.00;99.90
52543;DHT22;38449;52.696;6.186;2023-04-28T10:39:36;14.90;99.90
52543;DHT22;38449;52.696;6.186;2023-04-28T10:42:03;14.90;99.90
52543;DHT22;38449;52.696;6.186;2023-04-28T10:47:09;14.80;99.90
52543;DHT22;38449;52.696;6.186;2023-04-28T10:50:05;14.80;99.90
52543;DHT22;38449;52.696;6.186;2023-04-28T10:55:27;14.80;99.90
52543;DHT22;38449;52.696;6.186;2023-04-28T11:00:45;14.80;99.90
52543;DHT22;38449;52.696;6.186;2023-04-28T11:06:24;14.70;99.90
52543;DHT22;38449;52.696;6.186;2023-04-28T11:08:55;14.60;99.90
52543;DHT22;38449;52.696;6.186;2023-04-28T11:11:30;14.60;99.90
52543;DHT22;38449;52.696;6.186;2023-04-28T11:17:04;14.50;99.90
52543;DHT22;38449;52.696;6.186;2023-04-28T11:19:33;14.50;99.90
52543;DHT22;38449;52.696;6.186;2023-04-28T11:22:01;14.40;99.90
52543;DHT22;38449;52.696;6.186;2023-04-28T11:24:29;14.40;99.90
52543;DHT22;38449;52.696;6.186;2023-04-28T11:26:57;14.30;99.90
52543;DHT22;38449;52.696;6.186;2023-04-28T11:29:31;14.30;99.90
52543;DHT22;38449;52.696;6.186;2023-04-28T11:31:58;14.20;99.90
52543;DHT22;38449;52.696;6.186;2023-04-28T11:34:25;14.10;99.90
52543;DHT22;38449;52.696;6.186;2023-04-28T11:36:51;14.20;99.90
52543;DHT22;38449;52.696;6.186;2023-04-28T11:39:25;14.00;99.90
52543;DHT22;38449;52.696;6.186;2023-04-28T11:41:54;14.00;99.90
52543;DHT22;38449;52.696;6.186;2023-04-28T11:44:25;14.00;99.90
52543;DHT22;38449;52.696;6.186;2023-04-28T11:46:56;13.90;99.90
52543;DHT22;38449;52.696;6.186;2023-04-28T11:49:26;13.90;99.90
52543;DHT22;38449;52.696;6.186;2023-04-28T11:52:06;13.90;99.90
52543;DHT22;38449;52.696;6.186;2023-04-28T11:54:34;13.80;99.90
52543;DHT22;38449;52.696;6.186;2023-04-28T11:57:00;13.80;99.90
52543;DHT22;38449;52.696;6.186;2023-04-28T11:59:34;13.80;99.90
52543;DHT22;38449;52.696;6.186;2023-04-28T12:02:02;13.70;99.90
52543;DHT22;38449;52.696;6.186;2023-04-28T12:04:33;13.70;99.90
52543;DHT22;38449;52.696;6.186;2023-04-28T12:09:30;13.60;99.90
52543;DHT22;38449;52.696;6.186;2023-04-28T12:12:00;13.60;99.90
52543;DHT22;38449;52.696;6.186;2023-04-28T12:14:28;13.60;99.90
52543;DHT22;38449;52.696;6.186;2023-04-28T12:16:55;13.60;99.90
52543;DHT22;38449;52.696;6.186;2023-04-28T12:19:22;13.60;99.90
52543;DHT22;38449;52.696;6.186;2023-04-28T12:22:04;13.50;99.90
52543;DHT22;38449;52.696;6.186;2023-04-28T12:24:31;13.60;99.90
52543;DHT22;38449;52.696;6.186;2023-04-28T12:27:14;13.60;99.90
52543;DHT22;38449;52.696;6.186;2023-04-28T12:29:42;13.50;99.90
52543;DHT22;38449;52.696;6.186;2023-04-28T12:32:10;13.60;99.90
52543;DHT22;38449;52.696;6.186;2023-04-28T12:34:37;13.50;99.90
52543;DHT22;38449;52.696;6.186;2023-04-28T12:37:05;13.60;99.90
52543;DHT22;38449;52.696;6.186;2023-04-28T12:39:32;13.50;99.90
52543;DHT22;38449;52.696;6.186;2023-04-28T12:42:00;13.60;99.90
52543;DHT22;38449;52.696;6.186;2023-04-28T12:44:32;13.60;99.90
52543;DHT22;38449;52.696;6.186;2023-04-28T12:47:05;13.60;99.90
52543;DHT22;38449;52.696;6.186;2023-04-28T12:49:36;13.80;99.90
52543;DHT22;38449;52.696;6.186;2023-04-28T12:52:03;13.70;99.90
52543;DHT22;38449;52.696;6.186;2023-04-28T12:54:30;13.70;99.90
52543;DHT22;38449;52.696;6.186;2023-04-28T12:56:56;13.60;99.90
52543;DHT22;38449;52.696;6.186;2023-04-28T12:59:23;13.50;99.90
52543;DHT22;38449;52.696;6.186;2023-04-28T13:01:49;13.60;99.90
52543;DHT22;38449;52.696;6.186;2023-04-28T13:04:17;13.60;99.90
52543;DHT22;38449;52.696;6.186;2023-04-28T13:06:43;13.70;99.90
52543;DHT22;38449;52.696;6.186;2023-04-28T13:09:10;13.60;99.90
52543;DHT22;38449;52.696;6.186;2023-04-28T13:11:37;13.70;99.90
52543;DHT22;38449;52.696;6.186;2023-04-28T13:14:04;13.70;99.90
52543;DHT22;38449;52.696;6.186;2023-04-28T13:16:30;13.70;99.90
52543;DHT22;38449;52.696;6.186;2023-04-28T13:18:57;13.80;99.90
52543;DHT22;38449;52.696;6.186;2023-04-28T13:21:24;13.80;99.90
52543;DHT22;38449;52.696;6.186;2023-04-28T13:23:52;13.70;99.90
52543;DHT22;38449;52.696;6.186;2023-04-28T13:26:19;13.80;99.90
52543;DHT22;38449;52.696;6.186;2023-04-28T13:28:46;13.70;99.90
52543;DHT22;38449;52.696;6.186;2023-04-28T13:31:13;13.80;99.90
52543;DHT22;38449;52.696;6.186;2023-04-28T13:33:39;13.90;99.90
52543;DHT22;38449;52.696;6.186;2023-04-28T13:36:06;13.90;99.90
52543;DHT22;38449;52.696;6.186;2023-04-28T13:38:33;13.70;99.90
52543;DHT22;38449;52.696;6.186;2023-04-28T13:41:00;13.70;99.90
52543;DHT22;38449;52.696;6.186;2023-04-28T13:43:26;13.70;99.90
52543;DHT22;38449;52.696;6.186;2023-04-28T13:45:52;13.70;99.90
52543;DHT22;38449;52.696;6.186;2023-04-28T13:48:19;13.80;99.90
52543;DHT22;38449;52.696;6.186;2023-04-28T13:50:45;13.80;99.90
52543;DHT22;38449;52.696;6.186;2023-04-28T13:53:11;13.80;99.90
52543;DHT22;38449;52.696;6.186;2023-04-28T13:55:38;13.70;99.90
52543;DHT22;38449;52.696;6.186;2023-04-28T13:58:04;13.70;99.90
52543;DHT22;38449;52.696;6.186;2023-04-28T14:00:32;13.60;99.90
52543;DHT22;38449;52.696;6.186;2023-04-28T14:02:59;13.80;99.90
52543;DHT22;38449;52.696;6.186;2023-04-28T14:05:26;13.70;99.90
52543;DHT22;38449;52.696;6.186;2023-04-28T14:07:53;13.70;99.90
52543;DHT22;38449;52.696;6.186;2023-04-28T14:10:20;13.70;99.90
52543;DHT22;38449;52.696;6.186;2023-04-28T14:12:47;13.80;99.90
52543;DHT22;38449;52.696;6.186;2023-04-28T14:15:15;14.00;99.90
52543;DHT22;38449;52.696;6.186;2023-04-28T14:17:42;13.80;99.90
52543;DHT22;38449;52.696;6.186;2023-04-28T14:20:09;13.80;99.90
52543;DHT22;38449;52.696;6.186;2023-04-28T14:22:39;13.90;99.90
52543;DHT22;38449;52.696;6.186;2023-04-28T14:25:06;13.90;99.90
52543;DHT22;38449;52.696;6.186;2023-04-28T14:27:32;13.90;99.90
52543;DHT22;38449;52.696;6.186;2023-04-28T14:29:59;13.90;99.90
52543;DHT22;38449;52.696;6.186;2023-04-28T14:32:26;14.00;99.90
52543;DHT22;38449;52.696;6.186;2023-04-28T14:34:52;13.80;99.90
52543;DHT22;38449;52.696;6.186;2023-04-28T14:37:18;13.90;99.90
52543;DHT22;38449;52.696;6.186;2023-04-28T14:39:44;13.80;99.90
52543;DHT22;38449;52.696;6.186;2023-04-28T14:42:11;14.00;99.90
52543;DHT22;38449;52.696;6.186;2023-04-28T14:44:37;13.90;99.90
52543;DHT22;38449;52.696;6.186;2023-04-28T14:47:04;14.00;99.90
52543;DHT22;38449;52.696;6.186;2023-04-28T14:49:30;13.80;99.90
52543;DHT22;38449;52.696;6.186;2023-04-28T14:51:56;13.90;99.90
52543;DHT22;38449;52.696;6.186;2023-04-28T14:54:24;13.80;99.90
52543;DHT22;38449;52.696;6.186;2023-04-28T14:56:51;13.80;99.90
52543;DHT22;38449;52.696;6.186;2023-04-28T14:59:17;13.80;99.90
52543;DHT22;38449;52.696;6.186;2023-04-28T15:01:44;13.70;99.90
52543;DHT22;38449;52.696;6.186;2023-04-28T15:04:10;13.70;99.90
52543;DHT22;38449;52.696;6.186;2023-04-28T15:06:37;13.80;99.90
52543;DHT22;38449;52.696;6.186;2023-04-28T15:09:03;13.60;99.90
52543;DHT22;38449;52.696;6.186;2023-04-28T15:11:30;13.60;99.90
52543;DHT22;38449;52.696;6.186;2023-04-28T15:13:56;13.50;99.90
52543;DHT22;38449;52.696;6.186;2023-04-28T15:16:22;13.40;99.90
52543;DHT22;38449;52.696;6.186;2023-04-28T15:18:49;13.60;99.90
52543;DHT22;38449;52.696;6.186;2023-04-28T15:21:15;13.60;99.90
52543;DHT22;38449;52.696;6.186;2023-04-28T15:23:41;13.40;99.90
52543;DHT22;38449;52.696;6.186;2023-04-28T15:26:08;13.50;99.90
52543;DHT22;38449;52.696;6.186;2023-04-28T15:28:35;13.50;99.90
52543;DHT22;38449;52.696;6.186;2023-04-28T15:31:02;13.50;99.90
52543;DHT22;38449;52.696;6.186;2023-04-28T15:33:29;13.30;99.90
52543;DHT22;38449;52.696;6.186;2023-04-28T15:35:56;13.30;99.90
52543;DHT22;38449;52.696;6.186;2023-04-28T15:38:22;13.40;99.90
52543;DHT22;38449;52.696;6.186;2023-04-28T15:40:49;13.40;99.90
52543;DHT22;38449;52.696;6.186;2023-04-28T15:43:15;13.40;99.90
52543;DHT22;38449;52.696;6.186;2023-04-28T15:45:41;13.40;99.90
52543;DHT22;38449;52.696;6.186;2023-04-28T15:48:09;13.20;99.90
52543;DHT22;38449;52.696;6.186;2023-04-28T15:50:36;13.20;99.90
52543;DHT22;38449;52.696;6.186;2023-04-28T15:53:03;13.40;99.90
52543;DHT22;38449;52.696;6.186;2023-04-28T15:55:29;13.30;99.90
52543;DHT22;38449;52.696;6.186;2023-04-28T15:57:56;13.10;99.90
52543;DHT22;38449;52.696;6.186;2023-04-28T16:00:22;13.10;99.90
52543;DHT22;38449;52.696;6.186;2023-04-28T16:02:49;13.00;99.90